createdAt,value
2022-08-21T00:00:33.051Z,16.3
2022-08-21T00:02:38.882Z,16.3
2022-08-21T00:04:57.001Z,16.3
2022-08-21T00:06:52.015Z,16.2
2022-08-21T00:11:03.622Z,16.2
2022-08-21T00:13:12.412Z,16.1
2022-08-21T00:15:18.202Z,16
2022-08-21T00:17:24.033Z,16
2022-08-21T00:20:34.255Z,15.9
2022-08-21T00:22:40.016Z,15.8
2022-08-21T00:24:45.836Z,15.8
2022-08-21T00:26:54.612Z,15.7
2022-08-21T00:29:00.400Z,15.7
2022-08-21T00:31:06.252Z,15.6
2022-08-21T00:33:12.043Z,15.7
2022-08-21T00:35:17.848Z,15.6
2022-08-21T00:37:23.657Z,15.6
2022-08-21T00:39:29.481Z,15.6
2022-08-21T00:43:44.043Z,15.6
2022-08-21T00:45:49.869Z,15.6
2022-08-21T00:47:55.670Z,15.6
2022-08-21T00:50:01.469Z,15.6
2022-08-21T00:52:07.274Z,15.6
2022-08-21T00:56:21.874Z,15.6
2022-08-21T00:58:27.674Z,15.6
2022-08-21T01:00:33.482Z,15.5
2022-08-21T01:06:50.894Z,15.5
2022-08-21T01:13:11.292Z,15.4
2022-08-21T01:15:17.110Z,15.4
2022-08-21T01:16:21.505Z,15.4
2022-08-21T01:18:27.301Z,15.4
2022-08-21T01:20:33.184Z,15.4
2022-08-21T01:22:38.916Z,15.4
2022-08-21T01:24:47.715Z,15.4
2022-08-21T01:26:53.468Z,15.3
2022-08-21T01:28:59.268Z,15.3
2022-08-21T01:31:05.094Z,15.4
2022-08-21T01:33:10.868Z,15.3
2022-08-21T01:35:16.697Z,15.3
2022-08-21T01:37:22.511Z,15.3
2022-08-21T01:39:31.260Z,15.3
2022-08-21T01:43:42.867Z,15.3
2022-08-21T01:45:48.663Z,15.3
2022-08-21T01:47:54.458Z,15.3
2022-08-21T01:50:00.276Z,15.3
2022-08-21T01:52:06.245Z,15.3
2022-08-21T01:54:14.813Z,15.3
2022-08-21T01:56:20.611Z,15.2
2022-08-21T01:58:26.425Z,15.2
2022-08-21T02:00:32.452Z,15.2
2022-08-21T02:02:38.030Z,15.2
2022-08-21T02:04:44.827Z,15.2
2022-08-21T02:06:49.622Z,15.2
2022-08-21T02:08:58.405Z,15.1
2022-08-21T02:11:04.206Z,15.2
2022-08-21T02:13:10.006Z,15.1
2022-08-21T02:16:20.198Z,15.1
2022-08-21T02:18:25.996Z,15.1
2022-08-21T02:20:31.805Z,15
2022-08-21T02:22:40.567Z,15.1
2022-08-21T02:26:52.176Z,15
2022-08-21T02:37:24.144Z,14.9
2022-08-21T02:39:29.946Z,14.9
2022-08-21T02:41:35.751Z,14.9
2022-08-21T02:43:41.555Z,14.9
2022-08-21T02:45:47.345Z,14.9
2022-08-21T02:47:53.159Z,14.9
2022-08-21T02:54:13.530Z,14.8
2022-08-21T02:58:25.133Z,14.8
2022-08-21T03:06:51.303Z,14.8
2022-08-21T03:08:57.097Z,14.8
2022-08-21T03:11:02.910Z,14.8
2022-08-21T03:13:28.778Z,14.8
2022-08-21T03:15:34.594Z,14.8
2022-08-21T03:17:40.406Z,14.8
2022-08-21T03:21:54.966Z,14.8
2022-08-21T03:24:02.937Z,14.8
2022-08-21T03:26:06.582Z,14.8
2022-08-21T03:28:13.001Z,14.8
2022-08-21T03:32:23.987Z,14.8
2022-08-21T03:34:32.751Z,14.8
2022-08-21T03:36:38.547Z,14.8
2022-08-21T03:38:44.359Z,14.8
2022-08-21T03:40:50.148Z,14.7
2022-08-21T03:42:56.035Z,14.7
2022-08-21T03:45:01.765Z,14.7
2022-08-21T03:49:16.316Z,14.7
2022-08-21T03:51:22.116Z,14.7
2022-08-21T03:53:27.916Z,14.8
2022-08-21T03:55:33.762Z,14.8
2022-08-21T03:57:39.502Z,14.8
2022-08-21T03:59:45.300Z,14.8
2022-08-21T04:01:51.133Z,14.9
2022-08-21T04:03:59.873Z,14.8
2022-08-21T04:06:05.652Z,14.8
2022-08-21T04:09:15.835Z,14.7
2022-08-21T04:11:21.632Z,14.7
2022-08-21T04:13:27.443Z,14.6
2022-08-21T04:19:51.794Z,14.6
2022-08-21T04:26:05.155Z,14.6
2022-08-21T04:28:10.952Z,14.6
2022-08-21T04:34:31.305Z,14.6
2022-08-21T04:38:44.639Z,14.6
2022-08-21T04:40:48.700Z,14.6
2022-08-21T04:42:54.543Z,14.6
2022-08-21T04:45:00.286Z,14.7
2022-08-21T04:47:09.057Z,14.7
2022-08-21T04:49:14.861Z,14.7
2022-08-21T04:51:20.644Z,14.8
2022-08-21T04:53:26.447Z,14.8
2022-08-21T04:55:32.259Z,14.8
2022-08-21T04:57:39.764Z,14.9
2022-08-21T04:59:43.844Z,14.8
2022-08-21T05:01:52.664Z,14.9
2022-08-21T05:03:58.406Z,14.9
2022-08-21T05:07:08.621Z,15
2022-08-21T05:09:14.401Z,15
2022-08-21T05:11:20.208Z,15.1
2022-08-21T05:13:26.007Z,15.1
2022-08-21T05:15:34.778Z,15.2
2022-08-21T05:17:40.592Z,15.3
2022-08-21T05:19:46.341Z,15.4
2022-08-21T05:21:52.156Z,15.5
2022-08-21T05:26:03.753Z,15.6
2022-08-21T05:28:09.545Z,15.7
2022-08-21T05:30:18.295Z,15.9
2022-08-21T05:32:24.103Z,16
2022-08-21T05:34:29.894Z,16.1
2022-08-21T05:36:35.698Z,16.2
2022-08-21T05:38:41.509Z,16.3
2022-08-21T05:42:54.340Z,16.4
2022-08-21T05:45:01.864Z,16.7
2022-08-21T05:49:13.470Z,17.1
2022-08-21T05:51:19.261Z,17.2
2022-08-21T05:55:33.979Z,17.6
2022-08-21T05:57:36.657Z,17.7
2022-08-21T06:01:51.292Z,18.1
2022-08-21T06:03:57.244Z,18.2
2022-08-21T06:05:01.410Z,18.4
2022-08-21T06:11:20.939Z,18.9
2022-08-21T06:17:40.797Z,19.2
2022-08-21T06:19:46.605Z,19.4
2022-08-21T06:21:52.401Z,19.5
2022-08-21T06:23:58.212Z,19.6
2022-08-21T06:26:04.021Z,21.5
2022-08-21T06:28:12.796Z,25.7
2022-08-21T06:30:18.580Z,26.8
2022-08-21T06:32:24.376Z,28.6
2022-08-21T06:34:30.142Z,29.4
2022-08-21T06:36:35.969Z,29.7
2022-08-21T06:38:41.725Z,29.9
2022-08-21T06:40:48.094Z,30.5
2022-08-21T06:45:01.949Z,30.7
2022-08-21T06:47:07.676Z,29.9
2022-08-21T06:49:13.535Z,29.7
2022-08-21T06:51:19.092Z,29.5
2022-08-21T06:53:24.764Z,29.6
2022-08-21T06:55:30.449Z,29.3
2022-08-21T07:01:50.502Z,29.3
2022-08-21T07:04:15.269Z,29
2022-08-21T07:06:20.903Z,28.9
2022-08-21T07:08:26.503Z,28.6
2022-08-21T07:10:35.151Z,28
2022-08-21T07:12:40.770Z,27.9
2022-08-21T07:14:46.376Z,28.5
2022-08-21T07:16:51.994Z,28.5
2022-08-21T07:18:57.567Z,28.7
2022-08-21T07:21:03.157Z,29
2022-08-21T07:23:08.771Z,29.2
2022-08-21T07:33:39.700Z,28.7
2022-08-21T07:35:45.274Z,28.8
2022-08-21T07:37:50.833Z,28.7
2022-08-21T07:39:59.521Z,28.7
2022-08-21T07:42:08.168Z,28.7
2022-08-21T07:44:10.546Z,28.2
2022-08-21T07:46:16.125Z,28.5
2022-08-21T07:48:21.676Z,29
2022-08-21T07:50:27.245Z,28.7
2022-08-21T07:52:32.818Z,28.5
2022-08-21T07:54:41.402Z,28.1
2022-08-21T07:56:46.951Z,28.3
2022-08-21T07:58:52.488Z,28.5
2022-08-21T08:02:02.337Z,27.9
2022-08-21T08:06:13.439Z,26.8
2022-08-21T08:08:22.020Z,27
2022-08-21T08:10:27.563Z,26.8
2022-08-21T08:12:33.098Z,26.6
2022-08-21T08:14:38.653Z,26.8
2022-08-21T08:16:44.221Z,27
2022-08-21T08:18:49.743Z,27.3
2022-08-21T08:20:55.345Z,27
2022-08-21T08:23:03.943Z,26.9
2022-08-21T08:25:09.777Z,27.1
2022-08-21T08:27:14.960Z,27.2
2022-08-21T08:29:20.452Z,26.5
2022-08-21T08:31:25.982Z,26
2022-08-21T08:33:31.519Z,26
2022-08-21T08:35:37.060Z,26
2022-08-21T08:37:45.975Z,26.5
2022-08-21T08:39:51.144Z,26.1
2022-08-21T08:44:02.213Z,26
2022-08-21T08:46:07.753Z,26.3
2022-08-21T08:48:14.259Z,26.5
2022-08-21T08:50:18.853Z,26.7
2022-08-21T08:52:27.375Z,26.3
2022-08-21T08:54:32.910Z,26.2
2022-08-21T08:56:38.424Z,26.1
2022-08-21T08:57:42.706Z,26.2
2022-08-21T08:59:48.231Z,26.2
2022-08-21T09:01:53.766Z,26.7
2022-08-21T09:03:59.281Z,26.4
2022-08-21T09:06:07.839Z,26.1
2022-08-21T09:08:18.137Z,26
2022-08-21T09:10:18.912Z,25.7
2022-08-21T09:12:24.448Z,26.1
2022-08-21T09:14:30.002Z,26.1
2022-08-21T09:16:35.533Z,26.3
2022-08-21T09:20:49.623Z,26.3
2022-08-21T09:22:55.407Z,26.4
2022-08-21T09:25:00.704Z,26.9
2022-08-21T09:27:06.265Z,27
2022-08-21T09:31:17.346Z,27.1
2022-08-21T09:33:22.876Z,26.5
2022-08-21T09:37:36.975Z,26.7
2022-08-21T09:39:45.667Z,26.7
2022-08-21T09:41:48.082Z,27
2022-08-21T09:43:53.649Z,26.7
2022-08-21T09:45:59.203Z,26.2
2022-08-21T09:48:04.759Z,26.3
2022-08-21T09:50:13.378Z,27.2
2022-08-21T09:52:18.913Z,26.4
2022-08-21T09:54:24.504Z,25.5
2022-08-21T09:55:28.785Z,26.1
2022-08-21T09:57:34.367Z,26.4
2022-08-21T10:01:45.555Z,27.3
2022-08-21T10:03:54.141Z,26.3
2022-08-21T10:05:59.745Z,26.1
2022-08-21T10:08:05.336Z,26.8
2022-08-21T10:10:10.938Z,26.8
2022-08-21T10:12:16.534Z,26.2
2022-08-21T10:14:22.139Z,26.3
2022-08-21T10:16:27.732Z,26.3
2022-08-21T10:18:36.354Z,26
2022-08-21T10:24:53.202Z,26.5
2022-08-21T10:29:04.443Z,26.3
2022-08-21T10:33:18.698Z,26.7
2022-08-21T10:35:24.310Z,26.6
2022-08-21T10:37:29.929Z,26.6
2022-08-21T10:39:36.429Z,26.6
2022-08-21T10:41:41.188Z,26.8
2022-08-21T10:43:46.808Z,26.5
2022-08-21T10:45:52.432Z,26.2
2022-08-21T10:48:01.065Z,26.4
2022-08-21T10:50:06.693Z,26.5
2022-08-21T10:52:12.315Z,26.9
2022-08-21T10:54:43.307Z,27
2022-08-21T10:56:48.947Z,27
2022-08-21T10:58:54.572Z,27.5
2022-08-21T11:01:03.272Z,27.5
2022-08-21T11:03:08.838Z,27.5
2022-08-21T11:05:14.449Z,27.8
2022-08-21T11:07:20.285Z,27.5
2022-08-21T11:09:25.984Z,26.9
2022-08-21T11:11:35.798Z,26.6
2022-08-21T11:13:37.211Z,27.1
2022-08-21T11:15:45.837Z,26.9
2022-08-21T11:17:51.461Z,27.1
2022-08-21T11:19:57.058Z,27.2
2022-08-21T11:24:08.306Z,26.7
2022-08-21T11:26:13.936Z,26.6
2022-08-21T11:30:28.232Z,27.5
2022-08-21T11:32:33.827Z,27.7
2022-08-21T11:34:39.454Z,27.3
2022-08-21T11:40:56.353Z,27
2022-08-21T11:43:01.980Z,27
2022-08-21T11:45:10.625Z,27.3
2022-08-21T11:47:16.246Z,27.1
2022-08-21T11:50:34.210Z,26.9
2022-08-21T11:52:31.855Z,27.2
2022-08-21T11:54:37.467Z,27.3
2022-08-21T11:56:43.104Z,26.7
2022-08-21T11:58:51.763Z,27.1
2022-08-21T12:00:57.445Z,26.9
2022-08-21T12:05:09.281Z,26.8
2022-08-21T12:09:21.668Z,26.7
2022-08-21T12:11:30.655Z,26.4
2022-08-21T12:13:40.355Z,26.7
2022-08-21T12:15:41.634Z,27
2022-08-21T12:17:47.299Z,27.5
2022-08-21T12:28:18.670Z,26.8
2022-08-21T12:30:27.306Z,26.7
2022-08-21T12:34:35.707Z,26.5
2022-08-21T12:36:41.366Z,26.4
2022-08-21T12:40:52.741Z,26.7
2022-08-21T12:43:01.644Z,26.7
2022-08-21T12:45:07.123Z,26.6
2022-08-21T12:47:12.803Z,26.3
2022-08-21T12:48:17.149Z,26.8
2022-08-21T12:50:22.825Z,27
2022-08-21T12:52:28.523Z,27
2022-08-21T12:54:34.204Z,27.1
2022-08-21T12:56:42.895Z,27.3
2022-08-21T12:58:48.585Z,27.2
2022-08-21T13:00:54.255Z,26.8
2022-08-21T13:03:00.092Z,27.1
2022-08-21T13:07:11.335Z,27.4
2022-08-21T13:09:17.015Z,27.7
2022-08-21T13:11:32.542Z,27.5
2022-08-21T13:13:31.362Z,27.4
2022-08-21T13:15:37.045Z,27.7
2022-08-21T13:17:42.721Z,27.3
2022-08-21T13:19:48.417Z,27.1
2022-08-21T13:21:54.093Z,27.6
2022-08-21T13:23:59.775Z,27.6
2022-08-21T13:26:08.456Z,26.9
2022-08-21T13:28:14.136Z,26.9
2022-08-21T13:30:19.816Z,27.5
2022-08-21T13:32:25.500Z,27.1
2022-08-21T13:34:31.158Z,26.9
2022-08-21T13:36:36.833Z,27
2022-08-21T13:38:42.506Z,26.8
2022-08-21T13:40:51.225Z,27
2022-08-21T13:42:57.121Z,27.1
2022-08-21T13:45:02.629Z,27.6
2022-08-21T13:48:12.578Z,27.6
2022-08-21T13:54:32.609Z,27.5
2022-08-21T13:56:38.291Z,27.4
2022-08-21T13:58:43.987Z,27.6
2022-08-21T14:00:49.660Z,27.5
2022-08-21T14:02:55.376Z,27.7
2022-08-21T14:05:01.033Z,27.5
2022-08-21T14:07:06.679Z,27.5
2022-08-21T14:09:15.361Z,27.6
2022-08-21T14:11:21.015Z,27.7
2022-08-21T14:13:26.695Z,27.6
2022-08-21T14:15:32.376Z,27.5
2022-08-21T14:17:38.575Z,27.3
2022-08-21T14:21:49.385Z,27.1
2022-08-21T14:23:58.077Z,26.6
2022-08-21T14:26:03.740Z,26.7
2022-08-21T14:30:15.093Z,26.8
2022-08-21T14:32:24.556Z,26.8
2022-08-21T14:36:32.169Z,26.1
2022-08-21T14:38:40.815Z,25.9
2022-08-21T14:40:46.497Z,26
2022-08-21T14:42:52.230Z,25.9
2022-08-21T14:45:23.815Z,26.3
2022-08-21T14:53:49.043Z,26.4
2022-08-21T14:55:54.717Z,26.6
2022-08-21T15:02:11.805Z,25.9
2022-08-21T15:06:26.268Z,25.9
2022-08-21T15:08:31.881Z,25.9
2022-08-21T15:16:54.687Z,25.5
2022-08-21T15:23:15.043Z,24.6
2022-08-21T15:25:20.516Z,24.6
2022-08-21T15:27:26.216Z,24.6
2022-08-21T15:31:37.662Z,24.6
2022-08-21T15:33:43.363Z,24.6
2022-08-21T15:35:52.082Z,24.5
2022-08-21T15:37:57.801Z,24.5
2022-08-21T15:40:03.606Z,24.2
2022-08-21T15:41:07.893Z,24.1
2022-08-21T15:43:13.623Z,24.1
2022-08-21T15:45:19.345Z,24.4
2022-08-21T15:47:25.085Z,24.5
2022-08-21T15:49:33.792Z,24.5
2022-08-21T15:53:45.250Z,24.3
2022-08-21T16:00:02.528Z,23.9
2022-08-21T16:02:08.212Z,23.9
2022-08-21T16:06:38.483Z,24.2
2022-08-21T16:08:28.394Z,23.8
2022-08-21T16:10:34.142Z,23.9
2022-08-21T16:12:39.884Z,23.9
2022-08-21T16:14:45.634Z,23.9
2022-08-21T16:16:51.362Z,23.6
2022-08-21T16:19:00.369Z,23.6
2022-08-21T16:21:05.844Z,23.5
2022-08-21T16:23:11.605Z,23.3
2022-08-21T16:25:17.632Z,23.4
2022-08-21T16:27:23.079Z,23.3
2022-08-21T16:29:28.822Z,23.4
2022-08-21T16:31:34.588Z,23.3
2022-08-21T16:33:43.308Z,23.4
2022-08-21T16:35:49.064Z,23.3
2022-08-21T16:38:59.184Z,23.1
2022-08-21T16:41:04.936Z,23.1
2022-08-21T16:47:26.901Z,23.1
2022-08-21T16:51:36.702Z,23
2022-08-21T16:53:42.466Z,23
2022-08-21T16:55:48.224Z,23.1
2022-08-21T16:57:53.988Z,23.1
2022-08-21T17:06:19.994Z,22.9
2022-08-21T17:08:25.750Z,22.7
2022-08-21T17:10:31.538Z,22.8
2022-08-21T17:12:37.270Z,22.9
2022-08-21T17:14:43.039Z,22.7
2022-08-21T17:21:03.293Z,22.7
2022-08-21T17:23:09.058Z,22.6
2022-08-21T17:25:14.812Z,22.6
2022-08-21T17:27:20.566Z,22.6
2022-08-21T17:29:26.345Z,22.6
2022-08-21T17:31:35.104Z,22.6
2022-08-21T17:33:40.851Z,22.6
2022-08-21T17:35:46.595Z,22.7
2022-08-21T17:38:56.747Z,22.5
2022-08-21T17:41:02.508Z,22.5
2022-08-21T17:43:08.268Z,22.5
2022-08-21T17:45:17.046Z,22.5
2022-08-21T17:47:22.781Z,22.4
2022-08-21T17:51:34.299Z,22.4
2022-08-21T17:55:45.855Z,22.4
2022-08-21T18:02:06.141Z,22.3
2022-08-21T18:06:18.281Z,22.2
2022-08-21T18:08:23.446Z,22.2
2022-08-21T18:10:29.254Z,22.2
2022-08-21T18:12:36.623Z,22.1
2022-08-21T18:14:45.336Z,22
2022-08-21T18:18:56.884Z,22
2022-08-21T18:21:02.699Z,22
2022-08-21T18:23:08.425Z,21.9
2022-08-21T18:25:14.245Z,21.9
2022-08-21T18:29:28.753Z,21.8
2022-08-21T18:31:34.546Z,21.7
2022-08-21T18:33:40.286Z,21.7
2022-08-21T18:36:11.515Z,21.7
2022-08-21T18:38:17.271Z,21.6
2022-08-21T18:40:23.108Z,21.6
2022-08-21T18:42:31.810Z,21.6
2022-08-21T18:44:37.600Z,21.5
2022-08-21T18:46:43.379Z,21.5
2022-08-21T18:48:49.169Z,21.5
2022-08-21T18:50:54.966Z,21.5
2022-08-21T18:53:00.747Z,21.5
2022-08-21T18:55:13.474Z,21.4
2022-08-21T19:03:32.648Z,21.3
2022-08-21T19:05:38.420Z,21.4
2022-08-21T19:07:44.243Z,21.3
2022-08-21T19:11:58.779Z,21.3
2022-08-21T19:14:04.531Z,21.2
2022-08-21T19:16:10.360Z,21.2
2022-08-21T19:18:16.102Z,21.2
2022-08-21T19:20:25.719Z,21.3
2022-08-21T19:22:27.670Z,21.2
2022-08-21T19:24:33.454Z,21.2
2022-08-21T19:26:42.232Z,21.2
2022-08-21T19:28:48.002Z,21.1
2022-08-21T19:30:53.802Z,21.1
2022-08-21T19:34:03.965Z,21
2022-08-21T19:36:09.737Z,21
2022-08-21T19:38:15.556Z,21
2022-08-21T19:40:24.316Z,20.9
2022-08-21T19:42:31.034Z,20.9
2022-08-21T19:44:35.845Z,20.9
2022-08-21T19:46:41.653Z,20.9
2022-08-21T19:48:47.439Z,20.8
2022-08-21T19:50:53.236Z,20.8
2022-08-21T19:52:59.215Z,20.8
2022-08-21T19:55:07.770Z,20.7
2022-08-21T19:59:24.840Z,20.6
2022-08-21T20:01:25.115Z,20.6
2022-08-21T20:07:42.477Z,20.4
2022-08-21T20:09:51.227Z,20.3
2022-08-21T20:14:02.826Z,20.2
2022-08-21T20:22:26.372Z,20.1
2022-08-21T20:28:50.263Z,20
2022-08-21T20:29:50.737Z,20
2022-08-21T20:31:56.542Z,20
2022-08-21T20:34:02.356Z,20
2022-08-21T20:36:08.187Z,20
2022-08-21T20:38:16.913Z,19.9
2022-08-21T20:40:22.732Z,19.9
2022-08-21T20:42:28.496Z,19.8
2022-08-21T20:46:40.107Z,19.8
2022-08-21T20:48:49.496Z,19.7
2022-08-21T20:50:51.707Z,19.7
2022-08-21T20:53:00.814Z,19.6
2022-08-21T20:55:06.323Z,19.6
2022-08-21T20:59:17.979Z,19.5
2022-08-21T21:05:35.328Z,19.5
2022-08-21T21:07:44.063Z,19.5
2022-08-21T21:09:49.872Z,19.5
2022-08-21T21:11:55.660Z,19.5
2022-08-21T21:14:01.470Z,19.6
2022-08-21T21:16:07.261Z,19.5
2022-08-21T21:22:27.672Z,19.4
2022-08-21T21:26:39.313Z,19.5
2022-08-21T21:31:55.309Z,19.4
2022-08-21T21:36:10.476Z,19.3
2022-08-21T21:38:15.710Z,19.3
2022-08-21T21:40:21.525Z,19.3
2022-08-21T21:42:29.976Z,19.3
2022-08-21T21:44:33.138Z,19.2
2022-08-21T21:46:38.940Z,19.2
2022-08-21T21:48:44.775Z,19.2
2022-08-21T21:50:53.543Z,19.2
2022-08-21T21:52:59.594Z,19.2
2022-08-21T21:55:06.203Z,19.2
2022-08-21T22:01:23.867Z,19.1
2022-08-21T22:03:29.448Z,19.1
2022-08-21T22:05:38.252Z,19.1
2022-08-21T22:09:49.851Z,19
2022-08-21T22:11:55.758Z,18.9
2022-08-21T22:14:01.471Z,19
2022-08-21T22:16:07.312Z,19
2022-08-21T22:18:13.114Z,19
2022-08-21T22:20:21.880Z,19
2022-08-21T22:22:27.680Z,19
2022-08-21T22:27:04.748Z,18.9
2022-08-21T22:29:10.551Z,18.9
2022-08-21T22:31:18.215Z,18.9
2022-08-21T22:33:25.137Z,18.8
2022-08-21T22:37:36.795Z,18.8
2022-08-21T22:39:42.711Z,18.8
2022-08-21T22:41:48.380Z,18.8
2022-08-21T22:43:54.184Z,18.8
2022-08-21T22:45:59.983Z,18.7
2022-08-21T22:48:11.320Z,18.6
2022-08-21T22:50:14.588Z,18.6
2022-08-21T22:52:20.367Z,18.7
2022-08-21T22:54:26.183Z,18.6
2022-08-21T22:56:31.970Z,18.6
2022-08-21T22:58:37.787Z,18.6
2022-08-21T23:00:43.612Z,18.7
2022-08-21T23:02:52.479Z,18.6
2022-08-21T23:04:58.198Z,18.6
2022-08-21T23:09:09.815Z,18.6
2022-08-21T23:11:15.593Z,18.5
2022-08-21T23:13:21.416Z,18.5
2022-08-21T23:15:27.240Z,18.4
2022-08-21T23:17:36.028Z,18.4
2022-08-21T23:19:41.879Z,18.4
2022-08-21T23:21:47.645Z,18.3
2022-08-21T23:22:52.133Z,18.4
2022-08-21T23:24:57.852Z,18.4
2022-08-21T23:35:29.855Z,18.2
2022-08-21T23:37:48.375Z,18.2
2022-08-21T23:48:07.656Z,18.1
2022-08-21T23:52:19.257Z,18.1
2022-08-21T23:54:25.082Z,18
2022-08-21T23:58:36.682Z,18
